Columbus, Ohio
Traffic Map
Current Weather Conditions
Columbus, Ohio
Overcast
Overcast
53°
Feels Like: 53°
Wind Chill: 53° Ceiling: 1900
Heat Index: 53° Visibility: 10mi
Dew Point: 42° Wind: 13mph
Humidity: 66% Direction: 360° (N)
Pressure: 30.14in Gusts: 0mph
Raw Report DataKCMH 221151Z 36011KT 10SM BKN019 OVC034 12/06 A3014 RMK AO2 SLP206 T01170056 10139 20117 51026
Traffic Incident Summary
Active as of:
Severity:
Category:
InformationThere was an issue retrieving the traffic information for this location. Please try a different location or try again shortly.
Advertisements
Track Severe Weather on mobile